富士山静岡空港METAR/TAF(約33km東):

RJNS 182300Z 34003KT 9999 -RA FEW030 SCT040 BKN060 08/02 Q1026

TAF RJNS 181709Z 1818/2000 30006KT 9999 FEW020 BKN030 BECMG 1900/1902 05005KT BECMG 1904/1906 4000 -RA BR FEW005 BKN008 TEMPO 1906/1912 2000 RA BR FEW003 BKN005 BECMG 1912/1915 28008KT 9999 NSW FEW015 BECMG 1915/1918 26018KT

ソアリング用気象予報:
BLIPMAP 中部地方
中部日本航空連盟および大野グライダークラブの支援により運営されているソアリング用気象予報BLIPMAPの中部地方版です。

風向風力(Windy.com):
スマホでの閲覧には、アプリ版Windy(Android/iOS)が適切です。

EGC Icon